Terminal Aerodrome Forecast
Issued by NWS

Home | Current Version | Previous Version | Text Only | Print | Product List | Glossary Off
Versions: 1 2 3 4 5 6 7 8 9 10 11 12 13 14 15 16 17 18 19 20 21 22

000
FTUS43 KFGF 240256 AAA
TAFBJI
TAF AMD
KBJI 240256Z 2403/2424 06006KT P6SM OVC005
     FM240400 06006KT 5SM -SHRA OVC004
     FM240600 06005KT 5SM SHRA OVC003=

USA.gov is the U.S. government's official web portal to all federal, state and local government web resources and services.